Time;durP1;ratioP1;P1;durP2;ratioP2;P2;SDS_P1;SDS_P2;PMS_P1;PMS_P2;Temp;Humidity;BMP_temperature;BMP_pressure;BME280_temperature;BME280_humidity;BME280_pressure;Samples;Min_cycle;Max_cycle;Signal;HPM_P1;HPM_P2
2022/11/16 00:01:42;;;;;;;275.40;83.80;;;;;;;;;;5053324;28;20053;-78
2022/11/16 00:04:27;;;;;;;271.92;80.65;;;;;;;;;;5046019;28;20049;-78
2022/11/16 00:07:13;;;;;;;272.02;84.22;;;;;;;;;;5043256;28;20494;-78
2022/11/16 00:09:59;;;;;;;252.55;74.28;;;;;;;;;;5042766;28;20486;-78
2022/11/16 00:12:44;;;;;;;205.88;71.90;;;;;;;;;;5035647;28;20049;-78
2022/11/16 00:15:28;;;;;;;283.55;76.57;;;;;;;;;;5041448;28;20065;-79
2022/11/16 00:18:13;;;;;;;300.70;77.57;;;;;;;;;;5041336;28;20045;-78
2022/11/16 00:20:59;;;;;;;241.70;86.63;;;;;;;;;;5035407;28;20407;-78
2022/11/16 00:23:44;;;;;;;210.05;77.22;;;;;;;;;;5050061;28;20041;-78
2022/11/16 00:26:29;;;;;;;337.45;114.85;;;;;;;;;;5039928;28;20037;-78
2022/11/16 00:29:19;;;;;;;415.35;124.65;;;;;;;;;;5026787;28;20045;-78
2022/11/16 00:32:04;;;;;;;357.40;125.35;;;;;;;;;;5035305;28;20045;-78
2022/11/16 00:34:50;;;;;;;350.50;122.13;;;;;;;;;;5035256;28;20049;-78
2022/11/16 00:37:35;;;;;;;341.67;129.15;;;;;;;;;;5035540;28;20057;-78
2022/11/16 00:40:21;;;;;;;297.25;112.88;;;;;;;;;;5041604;28;20053;-78
2022/11/16 00:43:07;;;;;;;342.48;131.63;;;;;;;;;;5028048;28;20038;-78
2022/11/16 00:45:53;;;;;;;268.90;108.43;;;;;;;;;;5042892;28;20049;-78
2022/11/16 00:48:38;;;;;;;314.98;111.45;;;;;;;;;;5030100;28;20046;-78
2022/11/16 00:51:23;;;;;;;292.80;118.38;;;;;;;;;;5044718;28;20049;-79
2022/11/16 00:54:11;;;;;;;282.27;137.00;;;;;;;;;;5036826;28;20041;-78
2022/11/16 00:56:56;;;;;;;297.80;101.38;;;;;;;;;;5042352;28;20045;-79
2022/11/16 00:59:43;;;;;;;232.27;81.70;;;;;;;;;;5033973;28;20037;-78
2022/11/16 01:02:29;;;;;;;187.80;65.43;;;;;;;;;;5044406;28;20038;-78
2022/11/16 01:05:14;;;;;;;176.43;66.95;;;;;;;;;;5033259;28;20041;-78
2022/11/16 01:08:00;;;;;;;139.57;50.17;;;;;;;;;;5044415;28;20049;-78
2022/11/16 01:10:45;;;;;;;161.27;56.08;;;;;;;;;;5032834;28;20046;-78
2022/11/16 01:13:31;;;;;;;222.10;71.45;;;;;;;;;;5048880;28;20049;-77
2022/11/16 01:16:19;;;;;;;294.83;100.57;;;;;;;;;;5041588;28;20395;-78
2022/11/16 01:19:05;;;;;;;277.23;103.72;;;;;;;;;;5036261;28;20037;-77
2022/11/16 01:21:51;;;;;;;273.08;106.57;;;;;;;;;;5043888;28;20050;-78
2022/11/16 01:24:36;;;;;;;276.48;102.68;;;;;;;;;;5040101;28;20046;-77
2022/11/16 01:27:22;;;;;;;253.63;92.65;;;;;;;;;;5041616;28;20046;-77
2022/11/16 01:30:11;;;;;;;210.68;83.50;;;;;;;;;;5040892;28;20049;-77
2022/11/16 01:33:00;;;;;;;234.30;85.65;;;;;;;;;;5026311;28;20490;-77
2022/11/16 01:35:45;;;;;;;232.45;85.38;;;;;;;;;;5025792;28;20049;-77
2022/11/16 01:38:33;;;;;;;205.75;83.40;;;;;;;;;;5040204;28;20041;-78
2022/11/16 01:41:22;;;;;;;233.02;88.25;;;;;;;;;;5039844;28;20041;-78
2022/11/16 01:44:31;;;;;;;204.82;85.57;;;;;;;;;;5025561;28;20045;-77
2022/11/16 01:47:24;;;;;;;213.20;81.85;;;;;;;;;;5025677;28;20041;-77
2022/11/16 01:50:14;;;;;;;223.40;82.55;;;;;;;;;;5025664;28;20038;-77
2022/11/16 01:53:06;;;;;;;204.75;79.35;;;;;;;;;;5025777;28;20390;-77
2022/11/16 01:55:59;;;;;;;166.50;72.22;;;;;;;;;;5039594;28;20093;-77
2022/11/16 01:59:17;;;;;;;179.30;67.20;;;;;;;;;;5025392;28;20033;-76
2022/11/16 02:02:03;;;;;;;171.00;67.03;;;;;;;;;;5025451;28;20045;-77
2022/11/16 02:04:51;;;;;;;149.25;61.65;;;;;;;;;;5039998;28;20037;-77
2022/11/16 02:11:22;;;;;;;127.88;54.40;;;;;;;;;;5039090;28;20053;-77
2022/11/16 02:14:40;;;;;;;135.98;54.97;;;;;;;;;;5025464;28;20045;-77
2022/11/16 02:17:59;;;;;;;140.73;55.95;;;;;;;;;;5039165;28;20067;-77
2022/11/16 02:20:48;;;;;;;132.40;53.72;;;;;;;;;;5038713;28;20479;-77
2022/11/16 02:23:47;;;;;;;132.95;54.95;;;;;;;;;;5024805;28;20045;-77
2022/11/16 02:27:08;;;;;;;172.82;60.20;;;;;;;;;;5033546;28;20053;-76
2022/11/16 02:29:54;;;;;;;166.77;61.22;;;;;;;;;;5033535;28;20498;-77
2022/11/16 02:32:54;;;;;;;148.27;63.30;;;;;;;;;;5033353;28;20049;-77
2022/11/16 02:35:48;;;;;;;254.27;75.90;;;;;;;;;;5033436;28;20053;-77
2022/11/16 02:38:38;;;;;;;241.90;81.10;;;;;;;;;;5024849;28;20049;-77
2022/11/16 02:41:27;;;;;;;230.80;77.57;;;;;;;;;;5019192;28;20049;-77
2022/11/16 02:44:24;;;;;;;251.52;82.32;;;;;;;;;;5024794;28;20045;-76
2022/11/16 02:47:17;;;;;;;214.90;81.80;;;;;;;;;;5024829;28;20049;-76
2022/11/16 02:50:08;;;;;;;250.20;89.78;;;;;;;;;;5025105;28;20042;-77
2022/11/16 02:52:54;;;;;;;266.13;88.35;;;;;;;;;;5033160;28;20490;-77
2022/11/16 02:55:41;;;;;;;235.07;86.93;;;;;;;;;;5033101;28;20038;-76
2022/11/16 02:58:27;;;;;;;240.18;82.47;;;;;;;;;;5038649;28;20041;-77
2022/11/16 03:01:17;;;;;;;272.35;87.95;;;;;;;;;;5033173;28;20050;-77
2022/11/16 03:04:12;;;;;;;260.50;81.40;;;;;;;;;;5024622;28;20037;-76
2022/11/16 03:07:01;;;;;;;275.08;82.70;;;;;;;;;;5024866;28;20478;-78
2022/11/16 03:09:48;;;;;;;203.55;76.57;;;;;;;;;;5018870;28;20045;-77
2022/11/16 03:12:35;;;;;;;232.07;71.78;;;;;;;;;;5024960;28;20041;-77
2022/11/16 03:15:20;;;;;;;205.88;80.10;;;;;;;;;;5024875;28;20050;-77
2022/11/16 03:18:07;;;;;;;263.75;75.05;;;;;;;;;;5039885;28;20037;-77
2022/11/16 03:21:01;;;;;;;232.68;70.50;;;;;;;;;;5031877;28;20051;-77
2022/11/16 03:23:45;;;;;;;243.32;75.22;;;;;;;;;;5032703;28;20037;-77
2022/11/16 03:26:42;;;;;;;279.60;78.53;;;;;;;;;;5038454;28;20403;-77
2022/11/16 03:29:50;;;;;;;268.35;70.50;;;;;;;;;;5034289;28;20037;-77
2022/11/16 03:32:53;;;;;;;243.90;73.93;;;;;;;;;;5036421;28;20041;-77
2022/11/16 03:36:04;;;;;;;257.40;70.35;;;;;;;;;;5027970;28;20041;-77
2022/11/16 03:38:51;;;;;;;188.77;66.40;;;;;;;;;;5028006;28;20041;-77
2022/11/16 03:41:41;;;;;;;215.80;69.72;;;;;;;;;;5042364;28;20038;-76
2022/11/16 03:44:27;;;;;;;139.85;49.75;;;;;;;;;;5027775;28;20421;-77
2022/11/16 03:47:13;;;;;;;191.35;68.80;;;;;;;;;;5027783;28;20049;-77
2022/11/16 03:49:58;;;;;;;142.75;58.00;;;;;;;;;;5036137;28;20049;-78
2022/11/16 03:52:44;;;;;;;151.57;58.92;;;;;;;;;;5041712;28;20041;-77
2022/11/16 03:55:31;;;;;;;192.48;62.58;;;;;;;;;;5041797;28;20046;-77
2022/11/16 03:58:17;;;;;;;177.13;61.38;;;;;;;;;;5028071;28;20478;-77
2022/11/16 04:01:03;;;;;;;166.63;59.45;;;;;;;;;;5041787;28;20041;-77
2022/11/16 04:03:48;;;;;;;192.60;60.08;;;;;;;;;;5041463;28;20049;-77
2022/11/16 04:25:30;;;;;;;136.93;54.75;;;;;;;;;;5041060;28;20475;-77
2022/11/16 04:28:18;;;;;;;172.18;63.40;;;;;;;;;;5027210;28;20049;-76
2022/11/16 04:40:28;;;;;;;174.63;58.17;;;;;;;;;;5041018;28;20041;-77
2022/11/16 04:43:14;;;;;;;149.40;55.08;;;;;;;;;;5026967;28;20049;-77
2022/11/16 04:49:07;;;;;;;167.43;55.83;;;;;;;;;;5041232;28;20094;-77
2022/11/16 04:51:52;;;;;;;138.00;56.58;;;;;;;;;;5034820;28;20050;-77
2022/11/16 04:54:37;;;;;;;168.75;59.85;;;;;;;;;;5040821;28;20153;-78
2022/11/16 04:57:24;;;;;;;149.88;55.88;;;;;;;;;;5040454;28;20050;-77
2022/11/16 05:00:11;;;;;;;160.52;59.25;;;;;;;;;;5034958;28;20041;-78
2022/11/16 05:02:57;;;;;;;143.25;57.53;;;;;;;;;;5040615;28;20049;-77
2022/11/16 05:05:43;;;;;;;166.25;59.70;;;;;;;;;;5021840;28;20390;-77
2022/11/16 05:08:28;;;;;;;138.95;56.42;;;;;;;;;;5012388;28;20045;-77
2022/11/16 05:11:16;;;;;;;164.13;56.28;;;;;;;;;;5026368;28;20045;-77
2022/11/16 05:14:02;;;;;;;130.88;53.03;;;;;;;;;;5025906;28;20483;-77
2022/11/16 05:16:47;;;;;;;164.27;55.50;;;;;;;;;;5040082;28;20049;-77
2022/11/16 05:22:38;;;;;;;181.82;56.90;;;;;;;;;;5034947;28;20486;-78
2022/11/16 05:25:24;;;;;;;154.68;55.97;;;;;;;;;;5039551;28;20490;-77
2022/11/16 05:28:10;;;;;;;180.25;61.65;;;;;;;;;;5025530;28;20482;-78
2022/11/16 05:30:58;;;;;;;159.70;57.58;;;;;;;;;;5026058;28;20046;-77
2022/11/16 05:33:46;;;;;;;183.00;61.38;;;;;;;;;;5020180;28;20045;-77
2022/11/16 05:36:32;;;;;;;158.38;59.53;;;;;;;;;;5025661;28;20041;-77
2022/11/16 05:39:18;;;;;;;198.13;63.47;;;;;;;;;;5025779;28;20403;-77
2022/11/16 05:42:04;;;;;;;170.35;59.05;;;;;;;;;;5019054;28;20061;-77
2022/11/16 05:44:50;;;;;;;160.35;63.85;;;;;;;;;;5018951;28;20041;-77
2022/11/16 05:47:36;;;;;;;172.13;64.40;;;;;;;;;;5025470;28;20049;-76
2022/11/16 05:50:21;;;;;;;151.48;61.80;;;;;;;;;;5026441;28;20370;-77
2022/11/16 05:53:20;;;;;;;182.15;67.70;;;;;;;;;;5025056;28;20053;-78
2022/11/16 05:56:06;;;;;;;166.85;66.78;;;;;;;;;;5039304;28;20061;-77
2022/11/16 05:58:57;;;;;;;182.75;69.03;;;;;;;;;;5025503;28;20045;-77
2022/11/16 06:01:43;;;;;;;172.38;70.63;;;;;;;;;;5039384;28;20410;-77
2022/11/16 06:04:28;;;;;;;192.00;68.75;;;;;;;;;;5025247;28;20037;-77
2022/11/16 06:07:14;;;;;;;168.20;64.40;;;;;;;;;;5025438;28;20053;-76
2022/11/16 06:09:59;;;;;;;149.98;64.30;;;;;;;;;;5019801;28;20057;-77
2022/11/16 06:12:45;;;;;;;153.43;64.75;;;;;;;;;;5024884;28;20045;-77
2022/11/16 06:15:30;;;;;;;161.93;65.25;;;;;;;;;;5025295;28;20498;-77
2022/11/16 06:18:16;;;;;;;143.63;59.95;;;;;;;;;;5018444;28;20042;-76
2022/11/16 06:21:02;;;;;;;159.38;67.03;;;;;;;;;;5024638;28;20057;-78
2022/11/16 06:23:47;;;;;;;173.85;68.60;;;;;;;;;;5039186;28;20506;-78
2022/11/16 06:26:32;;;;;;;148.98;62.17;;;;;;;;;;5038647;28;20045;-78
2022/11/16 06:29:17;;;;;;;144.82;61.53;;;;;;;;;;5031476;28;20045;-78
2022/11/16 06:32:03;;;;;;;154.02;60.47;;;;;;;;;;5024521;28;20049;-78
2022/11/16 06:34:48;;;;;;;153.07;66.10;;;;;;;;;;5033464;28;20042;-78
2022/11/16 06:37:34;;;;;;;165.68;68.72;;;;;;;;;;5033316;28;20045;-77
2022/11/16 06:40:20;;;;;;;159.82;66.88;;;;;;;;;;5033866;28;20037;-77
2022/11/16 06:43:05;;;;;;;175.18;69.60;;;;;;;;;;5024875;28;20057;-77
2022/11/16 06:45:53;;;;;;;116.53;51.38;;;;;;;;;;5038773;28;20475;-77
2022/11/16 06:48:37;;;;;;;108.43;46.50;;;;;;;;;;5024970;28;20045;-77
2022/11/16 06:51:27;;;;;;;273.77;80.03;;;;;;;;;;5039215;28;20495;-77
2022/11/16 06:54:12;;;;;;;136.70;57.75;;;;;;;;;;5019130;28;20351;-77
2022/11/16 06:56:57;;;;;;;139.98;58.40;;;;;;;;;;5032960;28;20046;-77
2022/11/16 06:59:43;;;;;;;142.10;56.83;;;;;;;;;;5024571;28;20045;-77
2022/11/16 07:02:29;;;;;;;145.80;58.33;;;;;;;;;;5033761;28;20041;-78
2022/11/16 07:05:18;;;;;;;155.70;63.38;;;;;;;;;;5041140;28;20041;-77
2022/11/16 07:08:10;;;;;;;155.73;63.60;;;;;;;;;;5037185;28;20041;-79
2022/11/16 07:10:55;;;;;;;134.23;56.05;;;;;;;;;;5037152;28;20033;-77
2022/11/16 07:13:41;;;;;;;138.80;57.85;;;;;;;;;;5043083;28;20049;-78
2022/11/16 07:16:28;;;;;;;130.32;56.85;;;;;;;;;;5036861;28;20394;-76
2022/11/16 07:19:16;;;;;;;96.43;50.00;;;;;;;;;;5028386;28;20046;-78
2022/11/16 07:22:03;;;;;;;95.70;50.78;;;;;;;;;;5025113;28;20054;-77
2022/11/16 07:24:48;;;;;;;103.03;52.40;;;;;;;;;;5042268;28;20037;-76
2022/11/16 07:27:34;;;;;;;101.57;50.92;;;;;;;;;;5042265;28;20049;-76
2022/11/16 07:30:19;;;;;;;109.97;52.55;;;;;;;;;;4800380;23;20043;-78
2022/11/16 07:33:28;;;;;;;102.68;47.90;;;;;;;;;;4995166;28;20042;-77
2022/11/16 07:36:29;;;;;;;126.82;58.13;;;;;;;;;;5002345;28;20042;-77
2022/11/16 07:39:15;;;;;;;130.23;65.25;;;;;;;;;;5001963;28;20047;-77
2022/11/16 07:42:01;;;;;;;117.93;56.80;;;;;;;;;;5002537;28;20042;-76
2022/11/16 07:45:03;;;;;;;124.30;56.30;;;;;;;;;;4996104;28;20038;-77
2022/11/16 07:47:53;;;;;;;121.95;58.60;;;;;;;;;;5002249;28;20568;-77
2022/11/16 07:51:07;;;;;;;129.50;59.30;;;;;;;;;;5002859;28;20046;-77
2022/11/16 07:53:57;;;;;;;124.82;57.65;;;;;;;;;;5015602;28;20046;-77
2022/11/16 07:56:42;;;;;;;134.15;60.17;;;;;;;;;;5016144;28;20042;-77
2022/11/16 07:59:28;;;;;;;135.10;58.78;;;;;;;;;;5015472;28;20050;-77
2022/11/16 08:02:13;;;;;;;124.20;57.47;;;;;;;;;;5002353;28;20050;-77
2022/11/16 08:05:01;;;;;;;131.23;61.30;;;;;;;;;;5001952;28;20050;-77
2022/11/16 08:07:48;;;;;;;123.30;55.90;;;;;;;;;;5001841;28;20064;-77
2022/11/16 08:10:33;;;;;;;113.63;59.33;;;;;;;;;;5001827;28;20042;-77
2022/11/16 08:13:19;;;;;;;131.60;59.28;;;;;;;;;;5001509;28;20050;-76
2022/11/16 08:16:13;;;;;;;113.90;58.20;;;;;;;;;;5001484;28;20058;-77
2022/11/16 08:19:00;;;;;;;117.55;57.03;;;;;;;;;;5000458;28;20042;-77
2022/11/16 08:21:46;;;;;;;117.38;58.63;;;;;;;;;;5000302;28;20046;-78
2022/11/16 08:24:33;;;;;;;111.55;54.60;;;;;;;;;;5001306;28;20042;-77
2022/11/16 08:27:19;;;;;;;113.85;54.20;;;;;;;;;;4994844;28;20073;-77
2022/11/16 08:30:09;;;;;;;115.28;54.65;;;;;;;;;;4999760;28;20042;-78
2022/11/16 08:32:55;;;;;;;110.28;55.53;;;;;;;;;;5000785;28;20046;-77
2022/11/16 08:35:40;;;;;;;112.32;60.60;;;;;;;;;;5000904;28;20042;-76
2022/11/16 08:38:26;;;;;;;109.63;57.53;;;;;;;;;;4996095;28;20050;-77
2022/11/16 08:41:12;;;;;;;127.82;63.75;;;;;;;;;;5014859;28;20051;-77
2022/11/16 08:43:59;;;;;;;119.03;60.17;;;;;;;;;;5015057;28;20043;-78
2022/11/16 08:46:44;;;;;;;108.68;59.35;;;;;;;;;;4995763;28;20415;-77
2022/11/16 08:49:43;;;;;;;112.82;61.95;;;;;;;;;;5001020;28;20039;-77
2022/11/16 08:52:29;;;;;;;102.28;54.97;;;;;;;;;;5001156;28;20051;-76
2022/11/16 08:55:17;;;;;;;104.10;56.35;;;;;;;;;;5005551;28;20050;-80
2022/11/16 08:58:02;;;;;;;107.20;58.38;;;;;;;;;;5008070;28;20427;-81
2022/11/16 09:00:50;;;;;;;103.53;52.60;;;;;;;;;;5007221;28;20484;-79
2022/11/16 09:03:37;;;;;;;94.65;53.33;;;;;;;;;;5000748;28;20046;-78
2022/11/16 09:06:23;;;;;;;103.22;56.80;;;;;;;;;;5000206;28;20467;-80
2022/11/16 09:09:10;;;;;;;103.05;55.50;;;;;;;;;;5001946;28;20411;-82
2022/11/16 09:11:55;;;;;;;106.60;55.38;;;;;;;;;;5001490;28;20047;-82
2022/11/16 09:14:41;;;;;;;110.25;56.50;;;;;;;;;;4998105;28;20500;-81
2022/11/16 09:17:26;;;;;;;103.70;56.72;;;;;;;;;;4994679;28;20050;-78
2022/11/16 09:20:12;;;;;;;106.75;56.88;;;;;;;;;;4994788;28;20050;-79
2022/11/16 09:22:58;;;;;;;104.78;56.30;;;;;;;;;;4994946;28;20050;-79
2022/11/16 09:25:44;;;;;;;98.95;51.63;;;;;;;;;;4994335;28;20403;-82
2022/11/16 09:28:30;;;;;;;99.80;54.85;;;;;;;;;;4994348;28;20047;-79
2022/11/16 09:31:15;;;;;;;96.53;53.03;;;;;;;;;;4997101;28;20050;-82
2022/11/16 09:34:01;;;;;;;87.53;46.85;;;;;;;;;;4994847;28;20404;-82
2022/11/16 09:36:46;;;;;;;88.82;48.80;;;;;;;;;;4995089;28;20061;-81
2022/11/16 09:39:33;;;;;;;93.93;54.58;;;;;;;;;;4994402;28;20038;-82
2022/11/16 09:42:57;;;;;;;102.93;55.42;;;;;;;;;;5002242;28;20046;-82
2022/11/16 09:46:32;;;;;;;99.75;59.28;;;;;;;;;;4993933;28;20407;-81
2022/11/16 09:49:29;;;;;;;98.15;55.00;;;;;;;;;;5001593;28;20050;-80
2022/11/16 09:52:32;;;;;;;105.05;60.03;;;;;;;;;;4994396;28;20050;-83
2022/11/16 09:55:27;;;;;;;98.85;53.30;;;;;;;;;;4994066;28;20050;-80
2022/11/16 09:58:18;;;;;;;129.33;75.87;;;;;;;;;;4994300;28;20042;-81
2022/11/16 10:01:15;;;;;;;116.47;70.78;;;;;;;;;;4993888;28;20042;-78
2022/11/16 10:04:15;;;;;;;94.57;54.55;;;;;;;;;;4994453;28;20042;-83
2022/11/16 10:07:04;;;;;;;140.32;82.60;;;;;;;;;;4994106;28;20050;-78
2022/11/16 10:09:49;;;;;;;120.85;70.90;;;;;;;;;;4994127;28;20046;-83
2022/11/16 10:12:50;;;;;;;103.05;54.08;;;;;;;;;;4994331;28;20399;-83
2022/11/16 10:16:03;;;;;;;108.10;55.83;;;;;;;;;;4994415;28;20384;-79
2022/11/16 10:19:19;;;;;;;99.53;50.70;;;;;;;;;;4995831;28;20053;-78
2022/11/16 10:22:45;;;;;;;92.90;52.15;;;;;;;;;;4994402;28;20043;-78
2022/11/16 10:25:48;;;;;;;90.25;51.42;;;;;;;;;;5000394;28;20424;-79
2022/11/16 10:28:57;;;;;;;83.53;46.95;;;;;;;;;;5000385;28;20042;-80
2022/11/16 10:31:43;;;;;;;85.60;49.47;;;;;;;;;;4994077;28;20046;-82
2022/11/16 10:34:37;;;;;;;87.55;47.65;;;;;;;;;;4994597;28;20042;-79
2022/11/16 10:37:29;;;;;;;85.93;48.23;;;;;;;;;;4993739;28;20046;-79
2022/11/16 10:40:20;;;;;;;87.72;51.70;;;;;;;;;;4998237;28;20058;-79
2022/11/16 10:43:24;;;;;;;83.72;47.40;;;;;;;;;;4998346;28;20415;-80
2022/11/16 10:46:22;;;;;;;82.07;46.38;;;;;;;;;;4997903;28;20035;-77
2022/11/16 10:49:43;;;;;;;80.43;46.75;;;;;;;;;;4997911;28;20042;-77
2022/11/16 10:52:29;;;;;;;84.80;46.35;;;;;;;;;;4997817;28;20054;-77
2022/11/16 10:55:15;;;;;;;79.47;48.20;;;;;;;;;;4998221;28;20484;-77
2022/11/16 10:58:04;;;;;;;79.65;47.67;;;;;;;;;;4997538;28;20060;-79
2022/11/16 11:00:53;;;;;;;86.13;50.58;;;;;;;;;;5003089;28;20038;-77
2022/11/16 11:03:38;;;;;;;91.63;51.22;;;;;;;;;;4997884;28;20042;-78
2022/11/16 11:06:25;;;;;;;91.25;51.35;;;;;;;;;;4997199;28;20050;-79
2022/11/16 11:09:34;;;;;;;89.18;51.15;;;;;;;;;;4998024;28;20050;-77
2022/11/16 11:12:37;;;;;;;94.72;53.63;;;;;;;;;;5002937;28;20042;-77
2022/11/16 11:15:25;;;;;;;104.25;57.60;;;;;;;;;;4997571;28;20050;-77
2022/11/16 11:18:15;;;;;;;98.78;53.05;;;;;;;;;;4997286;28;20042;-78
2022/11/16 11:21:06;;;;;;;98.03;58.00;;;;;;;;;;4997252;28;20038;-79
2022/11/16 11:23:55;;;;;;;100.68;55.25;;;;;;;;;;4997476;28;20054;-78
2022/11/16 11:26:40;;;;;;;90.63;52.05;;;;;;;;;;4996570;28;20051;-77
2022/11/16 11:29:30;;;;;;;98.15;55.28;;;;;;;;;;4997265;28;20511;-77
2022/11/16 11:32:17;;;;;;;109.43;57.22;;;;;;;;;;4996500;28;20180;-78
2022/11/16 11:35:05;;;;;;;102.93;58.70;;;;;;;;;;4996982;28;20395;-77
2022/11/16 11:37:53;;;;;;;96.68;55.60;;;;;;;;;;4997138;28;20050;-77
2022/11/16 11:40:38;;;;;;;109.03;58.10;;;;;;;;;;5003180;28;20476;-78
2022/11/16 11:43:24;;;;;;;109.80;56.80;;;;;;;;;;4996956;28;20050;-79
2022/11/16 11:46:25;;;;;;;122.63;59.92;;;;;;;;;;4997009;28;20050;-77
2022/11/16 11:49:24;;;;;;;115.45;60.78;;;;;;;;;;4996301;28;20050;-77
2022/11/16 11:52:21;;;;;;;116.53;64.00;;;;;;;;;;5003249;28;20043;-77
2022/11/16 11:55:13;;;;;;;113.50;61.28;;;;;;;;;;4996521;28;20046;-77
2022/11/16 11:58:00;;;;;;;102.63;61.33;;;;;;;;;;5003689;28;20499;-77
2022/11/16 12:01:24;;;;;;;121.43;66.18;;;;;;;;;;4996434;28;20404;-78
2022/11/16 12:04:45;;;;;;;120.75;67.47;;;;;;;;;;4996648;28;20054;-78
2022/11/16 12:07:34;;;;;;;115.18;65.47;;;;;;;;;;5003403;28;20053;-79
2022/11/16 12:10:36;;;;;;;117.30;66.15;;;;;;;;;;5002033;28;20050;-78
2022/11/16 12:14:17;;;;;;;124.13;69.15;;;;;;;;;;4996343;28;20046;-79
2022/11/16 12:17:16;;;;;;;120.93;70.50;;;;;;;;;;4938662;28;20048;-78
2022/11/16 12:20:45;;;;;;;128.35;73.75;;;;;;;;;;4996345;28;20038;-78
2022/11/16 12:23:53;;;;;;;115.15;66.68;;;;;;;;;;4982448;28;20054;-77
2022/11/16 12:26:59;;;;;;;114.93;65.50;;;;;;;;;;5003330;28;20110;-78
2022/11/16 12:29:54;;;;;;;109.78;63.22;;;;;;;;;;4995643;28;20480;-78
2022/11/16 12:32:45;;;;;;;114.35;66.20;;;;;;;;;;4995969;28;20050;-78
2022/11/16 12:36:07;;;;;;;119.53;67.88;;;;;;;;;;4995940;28;20050;-78
2022/11/16 12:38:58;;;;;;;136.30;77.35;;;;;;;;;;4995588;28;20046;-78
2022/11/16 12:41:57;;;;;;;113.97;64.80;;;;;;;;;;4996104;28;20043;-76
2022/11/16 12:45:11;;;;;;;111.53;66.90;;;;;;;;;;4995533;28;20042;-79
2022/11/16 12:48:00;;;;;;;118.10;63.23;;;;;;;;;;4995901;28;20046;-78
2022/11/16 12:51:03;;;;;;;109.80;68.07;;;;;;;;;;4995246;28;20046;-79
2022/11/16 12:54:28;;;;;;;116.60;67.18;;;;;;;;;;4995510;28;20042;-78
2022/11/16 12:57:13;;;;;;;104.00;62.17;;;;;;;;;;4992550;28;20046;-80
2022/11/16 13:00:08;;;;;;;103.53;63.65;;;;;;;;;;4995344;28;20046;-80
2022/11/16 13:03:27;;;;;;;111.20;67.28;;;;;;;;;;4994933;28;20042;-77
2022/11/16 13:06:19;;;;;;;130.98;73.28;;;;;;;;;;4988291;28;20050;-80
2022/11/16 13:09:34;;;;;;;118.15;67.35;;;;;;;;;;5001993;28;20050;-78
2022/11/16 13:12:22;;;;;;;103.35;64.32;;;;;;;;;;5001075;28;20042;-80
2022/11/16 13:15:20;;;;;;;114.47;66.55;;;;;;;;;;4995096;28;20388;-78
2022/11/16 13:18:19;;;;;;;102.80;60.83;;;;;;;;;;4995675;28;20047;-81
2022/11/16 13:21:23;;;;;;;103.93;58.75;;;;;;;;;;4994579;28;20050;-82
2022/11/16 13:24:33;;;;;;;114.13;63.90;;;;;;;;;;4995398;28;20496;-78
2022/11/16 13:27:51;;;;;;;160.20;82.93;;;;;;;;;;4994674;28;20054;-77
2022/11/16 13:30:57;;;;;;;149.23;83.30;;;;;;;;;;4989595;28;20058;-79
2022/11/16 13:33:49;;;;;;;128.68;70.45;;;;;;;;;;5000976;28;20042;-79
2022/11/16 13:36:43;;;;;;;109.07;61.97;;;;;;;;;;4994691;28;20042;-80
2022/11/16 13:39:57;;;;;;;120.22;66.55;;;;;;;;;;4998636;28;20054;-77
2022/11/16 13:42:56;;;;;;;119.75;68.95;;;;;;;;;;4994252;28;20491;-80
2022/11/16 13:45:57;;;;;;;120.57;68.10;;;;;;;;;;4994510;28;20042;-78
2022/11/16 13:48:44;;;;;;;127.43;69.05;;;;;;;;;;4994216;28;20046;-79
2022/11/16 13:51:31;;;;;;;182.60;93.32;;;;;;;;;;5001608;28;20050;-79
2022/11/16 13:54:26;;;;;;;153.77;82.50;;;;;;;;;;4994872;28;20216;-77
2022/11/16 13:57:25;;;;;;;162.32;90.93;;;;;;;;;;4994814;28;20043;-80
2022/11/16 14:00:19;;;;;;;147.30;77.70;;;;;;;;;;4994780;28;20051;-82
2022/11/16 14:03:11;;;;;;;138.95;78.45;;;;;;;;;;4994164;28;20046;-80
2022/11/16 14:05:56;;;;;;;157.32;88.55;;;;;;;;;;4993917;28;20046;-83
2022/11/16 14:08:41;;;;;;;170.00;94.85;;;;;;;;;;4993792;28;20491;-83
2022/11/16 14:11:38;;;;;;;162.30;94.43;;;;;;;;;;4985654;28;20050;-82
2022/11/16 14:15:15;;;;;;;165.93;95.63;;;;;;;;;;4995196;28;20395;-82
2022/11/16 14:18:02;;;;;;;150.35;85.80;;;;;;;;;;4953373;28;20050;-82
2022/11/16 14:21:09;;;;;;;153.18;93.07;;;;;;;;;;4994105;28;20042;-83
2022/11/16 14:24:14;;;;;;;232.85;127.25;;;;;;;;;;4993311;28;20496;-82
2022/11/16 14:27:08;;;;;;;213.18;124.03;;;;;;;;;;4993614;28;20042;-84
2022/11/16 14:30:28;;;;;;;198.20;119.90;;;;;;;;;;4993434;28;20042;-83
2022/11/16 14:33:24;;;;;;;177.93;110.47;;;;;;;;;;4992905;28;20043;-82
2022/11/16 14:36:10;;;;;;;181.10;110.35;;;;;;;;;;4995183;28;20043;-81
2022/11/16 14:39:30;;;;;;;167.50;103.25;;;;;;;;;;4993639;28;20043;-78
2022/11/16 14:42:23;;;;;;;178.63;108.50;;;;;;;;;;4994468;28;20054;-79
2022/11/16 14:45:17;;;;;;;173.45;106.13;;;;;;;;;;4993564;28;20038;-80
2022/11/16 14:48:15;;;;;;;215.00;120.60;;;;;;;;;;4994194;28;20046;-83
2022/11/16 14:51:12;;;;;;;194.82;112.10;;;;;;;;;;4994672;28;20042;-84
2022/11/16 14:54:26;;;;;;;217.93;136.57;;;;;;;;;;4993900;28;20372;-81
2022/11/16 14:57:17;;;;;;;212.40;130.20;;;;;;;;;;4971492;28;20055;-85
2022/11/16 15:00:19;;;;;;;238.82;150.35;;;;;;;;;;4993553;28;20054;-85
2022/11/16 15:03:05;;;;;;;273.08;160.73;;;;;;;;;;4996468;28;20483;-81
2022/11/16 15:05:50;;;;;;;224.35;135.40;;;;;;;;;;4993448;28;20377;-83
2022/11/16 15:08:47;;;;;;;255.52;160.50;;;;;;;;;;4994107;28;20046;-85
2022/11/16 15:14:47;;;;;;;221.93;134.15;;;;;;;;;;4993489;28;20038;-81
2022/11/16 15:17:33;;;;;;;288.42;183.52;;;;;;;;;;4993818;28;20038;-84
2022/11/16 15:20:22;;;;;;;242.65;144.60;;;;;;;;;;4993678;28;20058;-80
2022/11/16 15:23:13;;;;;;;248.32;157.23;;;;;;;;;;4993436;28;20046;-80
2022/11/16 15:26:01;;;;;;;240.75;152.93;;;;;;;;;;4995142;28;20050;-85
2022/11/16 15:28:46;;;;;;;231.50;147.50;;;;;;;;;;4996452;28;20042;-81
2022/11/16 15:31:34;;;;;;;244.90;152.27;;;;;;;;;;4996912;28;20046;-80
2022/11/16 15:34:20;;;;;;;241.05;151.60;;;;;;;;;;4996584;28;20487;-82
2022/11/16 15:37:10;;;;;;;237.32;153.43;;;;;;;;;;4996845;28;20385;-80
2022/11/16 15:39:56;;;;;;;246.25;152.43;;;;;;;;;;4997553;28;20495;-80
2022/11/16 15:42:42;;;;;;;238.77;152.32;;;;;;;;;;4996656;28;20043;-79
2022/11/16 15:45:30;;;;;;;242.90;150.77;;;;;;;;;;4997193;28;20377;-78
2022/11/16 15:48:22;;;;;;;256.83;158.80;;;;;;;;;;4991393;28;20050;-79
2022/11/16 15:51:13;;;;;;;244.07;151.57;;;;;;;;;;4997886;28;20503;-81
2022/11/16 15:54:22;;;;;;;245.40;150.95;;;;;;;;;;4988846;28;20373;-79
2022/11/16 15:57:11;;;;;;;254.40;158.15;;;;;;;;;;4996440;28;20051;-80
2022/11/16 15:59:57;;;;;;;269.75;169.15;;;;;;;;;;4996961;28;20058;-80
2022/11/16 16:02:50;;;;;;;292.92;181.77;;;;;;;;;;4997501;28;20046;-81
2022/11/16 16:05:39;;;;;;;307.20;193.15;;;;;;;;;;5004064;28;20047;-82
2022/11/16 16:08:29;;;;;;;337.20;214.85;;;;;;;;;;4996779;28;20047;-80
2022/11/16 16:11:14;;;;;;;392.80;255.27;;;;;;;;;;4996255;28;20039;-84
2022/11/16 16:14:02;;;;;;;410.60;267.98;;;;;;;;;;4997947;28;20377;-84
2022/11/16 16:16:53;;;;;;;302.10;198.02;;;;;;;;;;4997246;28;20042;-82
2022/11/16 16:19:40;;;;;;;284.90;182.10;;;;;;;;;;4998026;28;20038;-83
2022/11/16 16:22:31;;;;;;;293.88;190.55;;;;;;;;;;4990137;28;20058;-81
2022/11/16 16:25:31;;;;;;;278.60;178.77;;;;;;;;;;4999953;28;20047;-84
2022/11/16 16:28:15;;;;;;;246.15;155.68;;;;;;;;;;4981070;28;20038;-81
2022/11/16 16:31:00;;;;;;;255.52;163.63;;;;;;;;;;4996319;28;20046;-81
2022/11/16 16:33:46;;;;;;;292.23;187.43;;;;;;;;;;4997081;28;20050;-82
2022/11/16 16:36:31;;;;;;;311.05;198.93;;;;;;;;;;4997082;28;20046;-83
2022/11/16 16:39:17;;;;;;;329.83;210.48;;;;;;;;;;4998509;28;20050;-83
2022/11/16 16:42:03;;;;;;;364.70;231.27;;;;;;;;;;5003537;28;20050;-83
2022/11/16 16:44:49;;;;;;;361.27;226.95;;;;;;;;;;4996522;28;20050;-82
2022/11/16 16:47:35;;;;;;;379.83;242.65;;;;;;;;;;4995669;28;20046;-78
2022/11/16 16:50:20;;;;;;;396.10;249.43;;;;;;;;;;4995284;28;20042;-76
2022/11/16 16:53:09;;;;;;;430.25;285.90;;;;;;;;;;4995578;28;20046;-78
2022/11/16 16:55:54;;;;;;;401.80;261.58;;;;;;;;;;4995708;28;20042;-79
2022/11/16 16:58:40;;;;;;;393.17;256.45;;;;;;;;;;4995390;28;20042;-76
2022/11/16 17:01:25;;;;;;;389.90;255.23;;;;;;;;;;4995301;28;20042;-79
2022/11/16 17:04:12;;;;;;;394.17;249.60;;;;;;;;;;4995404;28;20042;-78
2022/11/16 17:06:58;;;;;;;351.02;224.90;;;;;;;;;;4995493;28;20050;-76